sensor_id;sensor_type;location;lat;lon;timestamp;P1;durP1;ratioP1;P2;durP2;ratioP2
74904;SDS011;63465;50.862;6.220;2023-09-18T00:00:40;15.97;;;6.00;;
74904;SDS011;63465;50.862;6.220;2023-09-18T00:03:07;12.77;;;5.53;;
74904;SDS011;63465;50.862;6.220;2023-09-18T00:05:33;11.30;;;6.03;;
74904;SDS011;63465;50.862;6.220;2023-09-18T00:07:59;17.80;;;6.33;;
74904;SDS011;63465;50.862;6.220;2023-09-18T00:10:25;15.43;;;6.00;;
74904;SDS011;63465;50.862;6.220;2023-09-18T00:12:51;13.83;;;5.97;;
74904;SDS011;63465;50.862;6.220;2023-09-18T00:15:16;18.57;;;5.97;;
74904;SDS011;63465;50.862;6.220;2023-09-18T00:17:41;10.03;;;5.83;;
74904;SDS011;63465;50.862;6.220;2023-09-18T00:20:07;14.83;;;6.70;;
74904;SDS011;63465;50.862;6.220;2023-09-18T00:22:34;10.00;;;5.47;;
74904;SDS011;63465;50.862;6.220;2023-09-18T00:24:59;10.43;;;5.67;;
74904;SDS011;63465;50.862;6.220;2023-09-18T00:27:24;9.50;;;5.40;;
74904;SDS011;63465;50.862;6.220;2023-09-18T00:29:50;12.73;;;5.20;;
74904;SDS011;63465;50.862;6.220;2023-09-18T00:32:15;13.40;;;5.30;;
74904;SDS011;63465;50.862;6.220;2023-09-18T00:34:40;9.97;;;5.47;;
74904;SDS011;63465;50.862;6.220;2023-09-18T00:37:05;9.50;;;6.07;;
74904;SDS011;63465;50.862;6.220;2023-09-18T00:39:31;7.07;;;5.03;;
74904;SDS011;63465;50.862;6.220;2023-09-18T00:41:56;11.63;;;5.50;;
74904;SDS011;63465;50.862;6.220;2023-09-18T00:44:22;14.63;;;6.17;;
74904;SDS011;63465;50.862;6.220;2023-09-18T00:46:48;9.67;;;5.70;;
74904;SDS011;63465;50.862;6.220;2023-09-18T00:49:15;14.00;;;5.73;;
74904;SDS011;63465;50.862;6.220;2023-09-18T00:51:43;9.00;;;5.80;;
74904;SDS011;63465;50.862;6.220;2023-09-18T00:54:09;8.70;;;6.00;;
74904;SDS011;63465;50.862;6.220;2023-09-18T00:56:35;7.63;;;5.80;;
74904;SDS011;63465;50.862;6.220;2023-09-18T00:59:00;13.10;;;5.77;;
74904;SDS011;63465;50.862;6.220;2023-09-18T01:01:28;14.20;;;6.93;;
74904;SDS011;63465;50.862;6.220;2023-09-18T01:03:54;10.10;;;6.07;;
74904;SDS011;63465;50.862;6.220;2023-09-18T01:06:21;12.87;;;5.53;;
74904;SDS011;63465;50.862;6.220;2023-09-18T01:08:47;12.80;;;6.80;;
74904;SDS011;63465;50.862;6.220;2023-09-18T01:11:32;16.13;;;7.10;;
74904;SDS011;63465;50.862;6.220;2023-09-18T01:16:38;13.13;;;8.20;;
74904;SDS011;63465;50.862;6.220;2023-09-18T01:19:10;18.00;;;8.10;;
74904;SDS011;63465;50.862;6.220;2023-09-18T01:21:36;15.00;;;8.70;;
74904;SDS011;63465;50.862;6.220;2023-09-18T01:24:01;12.27;;;7.73;;
74904;SDS011;63465;50.862;6.220;2023-09-18T01:26:26;18.83;;;9.90;;
74904;SDS011;63465;50.862;6.220;2023-09-18T01:28:52;17.83;;;9.00;;
74904;SDS011;63465;50.862;6.220;2023-09-18T01:31:17;22.97;;;10.50;;
74904;SDS011;63465;50.862;6.220;2023-09-18T01:33:43;25.83;;;11.37;;
74904;SDS011;63465;50.862;6.220;2023-09-18T01:36:12;42.40;;;12.27;;
74904;SDS011;63465;50.862;6.220;2023-09-18T01:38:39;33.20;;;12.07;;
74904;SDS011;63465;50.862;6.220;2023-09-18T01:41:04;38.77;;;12.73;;
74904;SDS011;63465;50.862;6.220;2023-09-18T01:43:30;31.27;;;11.17;;
74904;SDS011;63465;50.862;6.220;2023-09-18T01:45:55;37.03;;;12.10;;
74904;SDS011;63465;50.862;6.220;2023-09-18T01:48:21;31.10;;;11.70;;
74904;SDS011;63465;50.862;6.220;2023-09-18T01:50:46;27.87;;;11.27;;
74904;SDS011;63465;50.862;6.220;2023-09-18T01:53:11;26.57;;;11.40;;
74904;SDS011;63465;50.862;6.220;2023-09-18T01:55:37;27.53;;;11.13;;
74904;SDS011;63465;50.862;6.220;2023-09-18T01:58:02;18.23;;;9.10;;
74904;SDS011;63465;50.862;6.220;2023-09-18T02:00:27;33.73;;;10.27;;
74904;SDS011;63465;50.862;6.220;2023-09-18T02:02:53;29.70;;;9.30;;
74904;SDS011;63465;50.862;6.220;2023-09-18T02:05:18;23.47;;;8.70;;
74904;SDS011;63465;50.862;6.220;2023-09-18T02:07:43;18.87;;;8.30;;
74904;SDS011;63465;50.862;6.220;2023-09-18T02:10:09;18.93;;;8.20;;
74904;SDS011;63465;50.862;6.220;2023-09-18T02:12:34;20.93;;;8.00;;
74904;SDS011;63465;50.862;6.220;2023-09-18T02:14:59;26.93;;;8.23;;
74904;SDS011;63465;50.862;6.220;2023-09-18T02:17:29;12.03;;;6.50;;
74904;SDS011;63465;50.862;6.220;2023-09-18T02:19:55;14.40;;;5.67;;
74904;SDS011;63465;50.862;6.220;2023-09-18T02:22:20;10.93;;;5.43;;
74904;SDS011;63465;50.862;6.220;2023-09-18T02:24:45;11.83;;;5.13;;
74904;SDS011;63465;50.862;6.220;2023-09-18T02:27:11;8.93;;;4.00;;
74904;SDS011;63465;50.862;6.220;2023-09-18T02:29:36;14.00;;;4.37;;
74904;SDS011;63465;50.862;6.220;2023-09-18T02:32:02;11.10;;;3.97;;
74904;SDS011;63465;50.862;6.220;2023-09-18T02:34:27;10.83;;;3.73;;
74904;SDS011;63465;50.862;6.220;2023-09-18T02:36:53;8.10;;;4.33;;
74904;SDS011;63465;50.862;6.220;2023-09-18T02:39:18;6.50;;;3.80;;
74904;SDS011;63465;50.862;6.220;2023-09-18T02:41:43;7.93;;;4.43;;
74904;SDS011;63465;50.862;6.220;2023-09-18T02:44:08;7.37;;;3.40;;
74904;SDS011;63465;50.862;6.220;2023-09-18T02:46:34;11.30;;;3.87;;
74904;SDS011;63465;50.862;6.220;2023-09-18T02:48:59;4.20;;;3.00;;
74904;SDS011;63465;50.862;6.220;2023-09-18T02:51:24;7.23;;;3.60;;
74904;SDS011;63465;50.862;6.220;2023-09-18T02:53:49;10.23;;;3.27;;
74904;SDS011;63465;50.862;6.220;2023-09-18T02:56:15;5.30;;;2.80;;
74904;SDS011;63465;50.862;6.220;2023-09-18T02:58:40;7.13;;;3.40;;
74904;SDS011;63465;50.862;6.220;2023-09-18T03:01:06;5.43;;;2.93;;
74904;SDS011;63465;50.862;6.220;2023-09-18T03:03:33;4.83;;;2.83;;
74904;SDS011;63465;50.862;6.220;2023-09-18T03:06:04;7.73;;;3.50;;
74904;SDS011;63465;50.862;6.220;2023-09-18T03:08:31;6.03;;;4.10;;
74904;SDS011;63465;50.862;6.220;2023-09-18T03:10:57;6.07;;;3.20;;
74904;SDS011;63465;50.862;6.220;2023-09-18T03:13:22;9.73;;;3.50;;
74904;SDS011;63465;50.862;6.220;2023-09-18T03:15:48;7.67;;;3.27;;
74904;SDS011;63465;50.862;6.220;2023-09-18T03:18:13;8.80;;;3.70;;
74904;SDS011;63465;50.862;6.220;2023-09-18T03:20:38;3.10;;;2.80;;
74904;SDS011;63465;50.862;6.220;2023-09-18T03:23:04;13.07;;;3.60;;
74904;SDS011;63465;50.862;6.220;2023-09-18T03:25:29;10.20;;;4.20;;
74904;SDS011;63465;50.862;6.220;2023-09-18T03:27:56;3.10;;;2.57;;
74904;SDS011;63465;50.862;6.220;2023-09-18T03:30:23;7.30;;;2.93;;
74904;SDS011;63465;50.862;6.220;2023-09-18T03:32:49;7.83;;;2.83;;
74904;SDS011;63465;50.862;6.220;2023-09-18T03:35:15;5.50;;;2.90;;
74904;SDS011;63465;50.862;6.220;2023-09-18T03:37:47;5.33;;;2.70;;
74904;SDS011;63465;50.862;6.220;2023-09-18T03:40:14;8.60;;;2.57;;
74904;SDS011;63465;50.862;6.220;2023-09-18T03:42:40;2.80;;;1.90;;
74904;SDS011;63465;50.862;6.220;2023-09-18T03:45:05;4.60;;;2.50;;
74904;SDS011;63465;50.862;6.220;2023-09-18T03:47:33;5.80;;;2.53;;
74904;SDS011;63465;50.862;6.220;2023-09-18T03:50:00;3.47;;;2.30;;
74904;SDS011;63465;50.862;6.220;2023-09-18T03:52:25;3.10;;;2.50;;
74904;SDS011;63465;50.862;6.220;2023-09-18T03:54:50;5.60;;;2.40;;
74904;SDS011;63465;50.862;6.220;2023-09-18T03:57:16;3.23;;;2.13;;
74904;SDS011;63465;50.862;6.220;2023-09-18T03:59:41;5.77;;;2.20;;
74904;SDS011;63465;50.862;6.220;2023-09-18T04:02:06;4.00;;;2.97;;
74904;SDS011;63465;50.862;6.220;2023-09-18T04:04:32;5.67;;;2.53;;
74904;SDS011;63465;50.862;6.220;2023-09-18T04:06:57;5.43;;;2.40;;
74904;SDS011;63465;50.862;6.220;2023-09-18T04:09:22;3.07;;;2.50;;
74904;SDS011;63465;50.862;6.220;2023-09-18T04:11:48;8.10;;;2.20;;
74904;SDS011;63465;50.862;6.220;2023-09-18T04:14:13;2.77;;;1.73;;
74904;SDS011;63465;50.862;6.220;2023-09-18T04:16:39;2.00;;;1.80;;
74904;SDS011;63465;50.862;6.220;2023-09-18T04:19:06;1.67;;;1.57;;
74904;SDS011;63465;50.862;6.220;2023-09-18T04:21:32;5.90;;;1.40;;
74904;SDS011;63465;50.862;6.220;2023-09-18T04:23:57;5.50;;;1.63;;
74904;SDS011;63465;50.862;6.220;2023-09-18T04:26:26;1.70;;;1.60;;
74904;SDS011;63465;50.862;6.220;2023-09-18T04:29:05;3.53;;;1.87;;
74904;SDS011;63465;50.862;6.220;2023-09-18T04:31:30;3.10;;;1.83;;
74904;SDS011;63465;50.862;6.220;2023-09-18T04:33:56;1.63;;;1.43;;
74904;SDS011;63465;50.862;6.220;2023-09-18T04:36:22;3.60;;;1.70;;
74904;SDS011;63465;50.862;6.220;2023-09-18T04:38:47;1.33;;;1.33;;
74904;SDS011;63465;50.862;6.220;2023-09-18T04:41:13;12.20;;;1.90;;
74904;SDS011;63465;50.862;6.220;2023-09-18T04:43:39;7.13;;;2.37;;
74904;SDS011;63465;50.862;6.220;2023-09-18T04:46:05;3.00;;;1.70;;
74904;SDS011;63465;50.862;6.220;2023-09-18T04:48:31;1.90;;;1.60;;
74904;SDS011;63465;50.862;6.220;2023-09-18T04:50:57;3.67;;;1.70;;
74904;SDS011;63465;50.862;6.220;2023-09-18T04:53:23;2.07;;;1.60;;
74904;SDS011;63465;50.862;6.220;2023-09-18T04:55:48;9.13;;;1.87;;
74904;SDS011;63465;50.862;6.220;2023-09-18T04:58:15;9.20;;;1.90;;
74904;SDS011;63465;50.862;6.220;2023-09-18T05:00:41;7.70;;;1.77;;
74904;SDS011;63465;50.862;6.220;2023-09-18T05:03:06;1.83;;;1.60;;
74904;SDS011;63465;50.862;6.220;2023-09-18T05:05:33;5.10;;;1.93;;
74904;SDS011;63465;50.862;6.220;2023-09-18T05:07:59;4.13;;;1.90;;
74904;SDS011;63465;50.862;6.220;2023-09-18T05:10:24;3.80;;;2.10;;
74904;SDS011;63465;50.862;6.220;2023-09-18T05:12:49;7.30;;;1.80;;
74904;SDS011;63465;50.862;6.220;2023-09-18T05:15:15;3.17;;;1.83;;
74904;SDS011;63465;50.862;6.220;2023-09-18T05:17:42;2.50;;;2.17;;
74904;SDS011;63465;50.862;6.220;2023-09-18T05:20:09;4.93;;;1.70;;
74904;SDS011;63465;50.862;6.220;2023-09-18T05:22:37;3.50;;;2.10;;
74904;SDS011;63465;50.862;6.220;2023-09-18T05:25:02;3.57;;;1.90;;
74904;SDS011;63465;50.862;6.220;2023-09-18T05:27:29;4.30;;;1.70;;
74904;SDS011;63465;50.862;6.220;2023-09-18T05:29:54;6.40;;;1.93;;
74904;SDS011;63465;50.862;6.220;2023-09-18T05:32:19;6.80;;;2.03;;
74904;SDS011;63465;50.862;6.220;2023-09-18T05:34:45;2.50;;;1.97;;
74904;SDS011;63465;50.862;6.220;2023-09-18T05:37:10;4.83;;;1.90;;
74904;SDS011;63465;50.862;6.220;2023-09-18T05:39:36;3.43;;;1.70;;
74904;SDS011;63465;50.862;6.220;2023-09-18T05:42:01;5.00;;;2.03;;
74904;SDS011;63465;50.862;6.220;2023-09-18T05:44:27;2.00;;;1.70;;
74904;SDS011;63465;50.862;6.220;2023-09-18T05:46:52;1.70;;;1.60;;
74904;SDS011;63465;50.862;6.220;2023-09-18T05:49:17;4.57;;;1.87;;
74904;SDS011;63465;50.862;6.220;2023-09-18T05:51:42;5.67;;;1.53;;
74904;SDS011;63465;50.862;6.220;2023-09-18T05:54:08;4.80;;;1.50;;
74904;SDS011;63465;50.862;6.220;2023-09-18T05:56:34;1.77;;;1.37;;
74904;SDS011;63465;50.862;6.220;2023-09-18T05:58:59;7.03;;;1.70;;
74904;SDS011;63465;50.862;6.220;2023-09-18T06:01:25;2.50;;;1.30;;
74904;SDS011;63465;50.862;6.220;2023-09-18T06:03:50;2.90;;;1.57;;
74904;SDS011;63465;50.862;6.220;2023-09-18T06:06:16;5.30;;;1.30;;
74904;SDS011;63465;50.862;6.220;2023-09-18T06:08:41;2.47;;;1.63;;
74904;SDS011;63465;50.862;6.220;2023-09-18T06:11:06;2.07;;;1.37;;
74904;SDS011;63465;50.862;6.220;2023-09-18T06:13:32;3.07;;;1.70;;
74904;SDS011;63465;50.862;6.220;2023-09-18T06:15:59;6.33;;;1.60;;
74904;SDS011;63465;50.862;6.220;2023-09-18T06:18:24;6.43;;;1.90;;
74904;SDS011;63465;50.862;6.220;2023-09-18T06:20:49;2.27;;;1.70;;
74904;SDS011;63465;50.862;6.220;2023-09-18T06:23:15;2.60;;;1.50;;
74904;SDS011;63465;50.862;6.220;2023-09-18T06:25:41;2.53;;;1.57;;
74904;SDS011;63465;50.862;6.220;2023-09-18T06:28:06;2.53;;;1.70;;
74904;SDS011;63465;50.862;6.220;2023-09-18T06:30:32;4.00;;;1.67;;
74904;SDS011;63465;50.862;6.220;2023-09-18T06:32:59;1.43;;;1.33;;
74904;SDS011;63465;50.862;6.220;2023-09-18T06:35:25;5.30;;;1.70;;
74904;SDS011;63465;50.862;6.220;2023-09-18T06:37:50;1.83;;;1.43;;
74904;SDS011;63465;50.862;6.220;2023-09-18T06:40:16;3.13;;;1.57;;
74904;SDS011;63465;50.862;6.220;2023-09-18T06:42:41;5.93;;;1.20;;
74904;SDS011;63465;50.862;6.220;2023-09-18T06:45:07;12.83;;;1.20;;
74904;SDS011;63465;50.862;6.220;2023-09-18T06:47:32;1.90;;;1.40;;
74904;SDS011;63465;50.862;6.220;2023-09-18T06:49:58;4.10;;;2.00;;
74904;SDS011;63465;50.862;6.220;2023-09-18T06:52:25;2.50;;;1.60;;
74904;SDS011;63465;50.862;6.220;2023-09-18T06:54:51;2.80;;;1.50;;
74904;SDS011;63465;50.862;6.220;2023-09-18T06:57:17;7.53;;;1.70;;
74904;SDS011;63465;50.862;6.220;2023-09-18T06:59:42;4.77;;;1.50;;
74904;SDS011;63465;50.862;6.220;2023-09-18T07:02:08;2.20;;;1.40;;
74904;SDS011;63465;50.862;6.220;2023-09-18T07:04:33;2.87;;;1.73;;
74904;SDS011;63465;50.862;6.220;2023-09-18T07:06:58;1.27;;;1.13;;
74904;SDS011;63465;50.862;6.220;2023-09-18T07:09:24;4.00;;;1.87;;
74904;SDS011;63465;50.862;6.220;2023-09-18T07:11:49;3.73;;;1.53;;
74904;SDS011;63465;50.862;6.220;2023-09-18T07:14:15;4.77;;;1.60;;
74904;SDS011;63465;50.862;6.220;2023-09-18T07:16:41;3.60;;;1.70;;
74904;SDS011;63465;50.862;6.220;2023-09-18T07:19:06;1.47;;;1.20;;
74904;SDS011;63465;50.862;6.220;2023-09-18T07:21:32;2.53;;;1.67;;
74904;SDS011;63465;50.862;6.220;2023-09-18T07:23:59;4.00;;;2.10;;
74904;SDS011;63465;50.862;6.220;2023-09-18T07:26:25;1.77;;;1.50;;
74904;SDS011;63465;50.862;6.220;2023-09-18T07:28:50;2.00;;;1.70;;
74904;SDS011;63465;50.862;6.220;2023-09-18T07:31:15;6.43;;;1.87;;
74904;SDS011;63465;50.862;6.220;2023-09-18T07:33:41;2.40;;;1.23;;
74904;SDS011;63465;50.862;6.220;2023-09-18T07:36:06;2.53;;;1.40;;
74904;SDS011;63465;50.862;6.220;2023-09-18T07:38:32;2.87;;;1.60;;
74904;SDS011;63465;50.862;6.220;2023-09-18T07:40:58;4.70;;;1.60;;
74904;SDS011;63465;50.862;6.220;2023-09-18T07:43:26;2.63;;;1.57;;
74904;SDS011;63465;50.862;6.220;2023-09-18T07:45:52;1.57;;;1.47;;
74904;SDS011;63465;50.862;6.220;2023-09-18T07:48:18;3.27;;;1.53;;
74904;SDS011;63465;50.862;6.220;2023-09-18T07:50:44;3.27;;;1.73;;
74904;SDS011;63465;50.862;6.220;2023-09-18T07:53:10;7.10;;;1.53;;
74904;SDS011;63465;50.862;6.220;2023-09-18T07:55:36;3.43;;;1.87;;
74904;SDS011;63465;50.862;6.220;2023-09-18T07:58:01;2.30;;;1.27;;
74904;SDS011;63465;50.862;6.220;2023-09-18T08:00:26;3.23;;;1.63;;
74904;SDS011;63465;50.862;6.220;2023-09-18T08:02:52;2.93;;;1.60;;
74904;SDS011;63465;50.862;6.220;2023-09-18T08:05:23;4.53;;;1.93;;
74904;SDS011;63465;50.862;6.220;2023-09-18T08:07:52;3.57;;;1.47;;
74904;SDS011;63465;50.862;6.220;2023-09-18T08:10:19;1.40;;;1.30;;
74904;SDS011;63465;50.862;6.220;2023-09-18T08:12:44;2.10;;;1.67;;
74904;SDS011;63465;50.862;6.220;2023-09-18T08:15:10;2.83;;;1.70;;
74904;SDS011;63465;50.862;6.220;2023-09-18T08:17:36;5.50;;;1.50;;
74904;SDS011;63465;50.862;6.220;2023-09-18T08:20:01;1.77;;;1.43;;
74904;SDS011;63465;50.862;6.220;2023-09-18T08:22:32;2.80;;;1.40;;
74904;SDS011;63465;50.862;6.220;2023-09-18T08:24:57;2.13;;;1.93;;
74904;SDS011;63465;50.862;6.220;2023-09-18T08:27:23;1.77;;;1.63;;
74904;SDS011;63465;50.862;6.220;2023-09-18T08:29:49;3.83;;;1.30;;
74904;SDS011;63465;50.862;6.220;2023-09-18T08:32:14;3.93;;;1.50;;
74904;SDS011;63465;50.862;6.220;2023-09-18T08:34:39;2.83;;;1.67;;
74904;SDS011;63465;50.862;6.220;2023-09-18T08:37:05;2.70;;;1.33;;
74904;SDS011;63465;50.862;6.220;2023-09-18T08:39:30;2.37;;;1.40;;
74904;SDS011;63465;50.862;6.220;2023-09-18T08:41:59;4.93;;;1.40;;
74904;SDS011;63465;50.862;6.220;2023-09-18T08:44:28;2.40;;;1.53;;
74904;SDS011;63465;50.862;6.220;2023-09-18T08:46:55;2.03;;;1.70;;
74904;SDS011;63465;50.862;6.220;2023-09-18T08:49:24;2.00;;;1.53;;
74904;SDS011;63465;50.862;6.220;2023-09-18T08:51:50;3.73;;;1.77;;
74904;SDS011;63465;50.862;6.220;2023-09-18T08:54:18;5.13;;;1.50;;
74904;SDS011;63465;50.862;6.220;2023-09-18T08:56:43;2.53;;;1.40;;
74904;SDS011;63465;50.862;6.220;2023-09-18T08:59:09;1.80;;;1.60;;
74904;SDS011;63465;50.862;6.220;2023-09-18T09:01:36;2.30;;;1.63;;
74904;SDS011;63465;50.862;6.220;2023-09-18T09:04:02;2.27;;;1.43;;
74904;SDS011;63465;50.862;6.220;2023-09-18T09:06:29;3.13;;;1.83;;
74904;SDS011;63465;50.862;6.220;2023-09-18T09:08:54;2.70;;;1.80;;
74904;SDS011;63465;50.862;6.220;2023-09-18T09:11:20;1.40;;;1.40;;
74904;SDS011;63465;50.862;6.220;2023-09-18T09:13:45;1.67;;;1.57;;
74904;SDS011;63465;50.862;6.220;2023-09-18T09:16:11;4.20;;;1.17;;
74904;SDS011;63465;50.862;6.220;2023-09-18T09:18:46;8.23;;;2.63;;
74904;SDS011;63465;50.862;6.220;2023-09-18T09:21:15;3.53;;;1.57;;
74904;SDS011;63465;50.862;6.220;2023-09-18T09:23:46;4.63;;;1.50;;
74904;SDS011;63465;50.862;6.220;2023-09-18T09:26:17;1.40;;;1.30;;
74904;SDS011;63465;50.862;6.220;2023-09-18T09:28:43;1.60;;;1.50;;
74904;SDS011;63465;50.862;6.220;2023-09-18T09:31:09;3.00;;;1.40;;
74904;SDS011;63465;50.862;6.220;2023-09-18T09:33:36;1.50;;;1.40;;
74904;SDS011;63465;50.862;6.220;2023-09-18T09:36:04;2.73;;;1.60;;
74904;SDS011;63465;50.862;6.220;2023-09-18T09:38:30;8.87;;;1.40;;
74904;SDS011;63465;50.862;6.220;2023-09-18T09:40:57;1.63;;;1.30;;
74904;SDS011;63465;50.862;6.220;2023-09-18T09:43:24;4.53;;;1.90;;
74904;SDS011;63465;50.862;6.220;2023-09-18T09:45:55;1.73;;;1.63;;
74904;SDS011;63465;50.862;6.220;2023-09-18T09:48:23;6.43;;;1.60;;
74904;SDS011;63465;50.862;6.220;2023-09-18T09:50:49;2.40;;;1.40;;
74904;SDS011;63465;50.862;6.220;2023-09-18T09:53:15;1.90;;;1.40;;
74904;SDS011;63465;50.862;6.220;2023-09-18T09:55:41;1.43;;;1.33;;
74904;SDS011;63465;50.862;6.220;2023-09-18T09:58:07;1.83;;;1.33;;
74904;SDS011;63465;50.862;6.220;2023-09-18T10:00:38;2.43;;;1.70;;
74904;SDS011;63465;50.862;6.220;2023-09-18T10:03:11;2.77;;;1.63;;
74904;SDS011;63465;50.862;6.220;2023-09-18T10:05:42;1.60;;;1.30;;
74904;SDS011;63465;50.862;6.220;2023-09-18T10:08:10;1.83;;;1.43;;
74904;SDS011;63465;50.862;6.220;2023-09-18T10:10:38;4.93;;;1.40;;
74904;SDS011;63465;50.862;6.220;2023-09-18T10:13:08;6.00;;;1.90;;
74904;SDS011;63465;50.862;6.220;2023-09-18T10:15:35;2.83;;;1.30;;
74904;SDS011;63465;50.862;6.220;2023-09-18T10:18:04;1.83;;;1.67;;
74904;SDS011;63465;50.862;6.220;2023-09-18T10:20:33;1.73;;;1.53;;
74904;SDS011;63465;50.862;6.220;2023-09-18T10:23:02;7.43;;;1.80;;
74904;SDS011;63465;50.862;6.220;2023-09-18T10:25:30;4.77;;;1.67;;
74904;SDS011;63465;50.862;6.220;2023-09-18T10:27:57;2.47;;;1.50;;
74904;SDS011;63465;50.862;6.220;2023-09-18T10:30:26;1.60;;;1.50;;
74904;SDS011;63465;50.862;6.220;2023-09-18T10:32:52;1.97;;;1.77;;
74904;SDS011;63465;50.862;6.220;2023-09-18T10:35:18;1.50;;;1.40;;
74904;SDS011;63465;50.862;6.220;2023-09-18T10:37:45;1.40;;;1.30;;
74904;SDS011;63465;50.862;6.220;2023-09-18T10:40:11;2.17;;;1.70;;
74904;SDS011;63465;50.862;6.220;2023-09-18T10:42:38;7.20;;;1.80;;
74904;SDS011;63465;50.862;6.220;2023-09-18T10:45:05;2.03;;;1.70;;
74904;SDS011;63465;50.862;6.220;2023-09-18T10:47:35;7.60;;;1.90;;
74904;SDS011;63465;50.862;6.220;2023-09-18T10:50:03;3.53;;;1.77;;
74904;SDS011;63465;50.862;6.220;2023-09-18T10:52:29;5.70;;;1.70;;
74904;SDS011;63465;50.862;6.220;2023-09-18T10:54:55;4.53;;;1.67;;
74904;SDS011;63465;50.862;6.220;2023-09-18T10:57:20;1.93;;;1.73;;
74904;SDS011;63465;50.862;6.220;2023-09-18T10:59:46;1.80;;;1.60;;
74904;SDS011;63465;50.862;6.220;2023-09-18T11:02:15;2.00;;;1.70;;
74904;SDS011;63465;50.862;6.220;2023-09-18T11:04:42;3.00;;;2.07;;
74904;SDS011;63465;50.862;6.220;2023-09-18T11:07:12;1.57;;;1.33;;
74904;SDS011;63465;50.862;6.220;2023-09-18T11:09:45;6.40;;;1.97;;
74904;SDS011;63465;50.862;6.220;2023-09-18T11:12:11;1.53;;;1.43;;
74904;SDS011;63465;50.862;6.220;2023-09-18T11:14:46;3.17;;;1.87;;
74904;SDS011;63465;50.862;6.220;2023-09-18T11:22:37;15.03;;;1.70;;
74904;SDS011;63465;50.862;6.220;2023-09-18T11:28:01;1.83;;;1.73;;
74904;SDS011;63465;50.862;6.220;2023-09-18T11:30:28;2.07;;;1.13;;
74904;SDS011;63465;50.862;6.220;2023-09-18T11:32:54;3.90;;;1.67;;
74904;SDS011;63465;50.862;6.220;2023-09-18T11:35:20;1.60;;;1.50;;
74904;SDS011;63465;50.862;6.220;2023-09-18T11:37:47;1.50;;;1.40;;
74904;SDS011;63465;50.862;6.220;2023-09-18T11:40:28;5.40;;;1.63;;
74904;SDS011;63465;50.862;6.220;2023-09-18T11:45:54;3.70;;;1.50;;
74904;SDS011;63465;50.862;6.220;2023-09-18T11:48:23;1.93;;;1.67;;
74904;SDS011;63465;50.862;6.220;2023-09-18T11:50:55;2.77;;;1.87;;
74904;SDS011;63465;50.862;6.220;2023-09-18T11:53:23;5.67;;;1.80;;
74904;SDS011;63465;50.862;6.220;2023-09-18T11:55:49;3.40;;;1.60;;
74904;SDS011;63465;50.862;6.220;2023-09-18T11:58:15;6.67;;;1.80;;
74904;SDS011;63465;50.862;6.220;2023-09-18T12:00:41;2.00;;;1.90;;
74904;SDS011;63465;50.862;6.220;2023-09-18T12:03:17;1.90;;;1.80;;
74904;SDS011;63465;50.862;6.220;2023-09-18T12:08:24;2.03;;;1.70;;
74904;SDS011;63465;50.862;6.220;2023-09-18T12:10:52;1.60;;;1.50;;
74904;SDS011;63465;50.862;6.220;2023-09-18T12:13:18;2.20;;;1.73;;
74904;SDS011;63465;50.862;6.220;2023-09-18T12:15:44;2.10;;;1.90;;
74904;SDS011;63465;50.862;6.220;2023-09-18T12:18:10;1.40;;;1.30;;
74904;SDS011;63465;50.862;6.220;2023-09-18T12:20:44;1.63;;;1.50;;
74904;SDS011;63465;50.862;6.220;2023-09-18T12:23:10;5.17;;;1.83;;
74904;SDS011;63465;50.862;6.220;2023-09-18T12:25:35;4.33;;;2.10;;
74904;SDS011;63465;50.862;6.220;2023-09-18T12:28:01;2.27;;;1.87;;
74904;SDS011;63465;50.862;6.220;2023-09-18T12:30:26;2.73;;;2.20;;
74904;SDS011;63465;50.862;6.220;2023-09-18T12:32:52;2.00;;;1.90;;
74904;SDS011;63465;50.862;6.220;2023-09-18T12:35:22;4.37;;;2.07;;
74904;SDS011;63465;50.862;6.220;2023-09-18T12:37:50;2.67;;;2.00;;
74904;SDS011;63465;50.862;6.220;2023-09-18T12:40:22;1.43;;;1.33;;
74904;SDS011;63465;50.862;6.220;2023-09-18T12:42:48;1.93;;;1.83;;
74904;SDS011;63465;50.862;6.220;2023-09-18T12:45:15;2.00;;;1.40;;
74904;SDS011;63465;50.862;6.220;2023-09-18T12:47:40;2.23;;;2.13;;
74904;SDS011;63465;50.862;6.220;2023-09-18T12:50:06;1.73;;;1.40;;
74904;SDS011;63465;50.862;6.220;2023-09-18T12:52:32;5.63;;;1.77;;
74904;SDS011;63465;50.862;6.220;2023-09-18T12:54:58;2.40;;;2.00;;
74904;SDS011;63465;50.862;6.220;2023-09-18T12:57:24;1.80;;;1.70;;
74904;SDS011;63465;50.862;6.220;2023-09-18T12:59:51;3.00;;;1.80;;
74904;SDS011;63465;50.862;6.220;2023-09-18T13:02:18;3.70;;;1.77;;
74904;SDS011;63465;50.862;6.220;2023-09-18T13:04:50;2.80;;;1.90;;
74904;SDS011;63465;50.862;6.220;2023-09-18T13:07:17;6.17;;;1.70;;
74904;SDS011;63465;50.862;6.220;2023-09-18T13:09:43;4.27;;;1.67;;
74904;SDS011;63465;50.862;6.220;2023-09-18T13:12:23;2.00;;;1.90;;
74904;SDS011;63465;50.862;6.220;2023-09-18T13:15:01;4.63;;;1.60;;
74904;SDS011;63465;50.862;6.220;2023-09-18T13:17:37;1.60;;;1.50;;
74904;SDS011;63465;50.862;6.220;2023-09-18T13:20:22;1.60;;;1.50;;
74904;SDS011;63465;50.862;6.220;2023-09-18T13:22:53;5.43;;;2.40;;
74904;SDS011;63465;50.862;6.220;2023-09-18T13:25:21;2.00;;;1.80;;
74904;SDS011;63465;50.862;6.220;2023-09-18T13:27:48;1.97;;;1.87;;
74904;SDS011;63465;50.862;6.220;2023-09-18T13:30:15;1.63;;;1.53;;
74904;SDS011;63465;50.862;6.220;2023-09-18T13:32:42;2.10;;;1.90;;
74904;SDS011;63465;50.862;6.220;2023-09-18T13:35:09;2.03;;;1.40;;
74904;SDS011;63465;50.862;6.220;2023-09-18T13:37:36;2.73;;;1.77;;
74904;SDS011;63465;50.862;6.220;2023-09-18T13:40:02;4.27;;;1.87;;
74904;SDS011;63465;50.862;6.220;2023-09-18T13:42:28;1.80;;;1.70;;
74904;SDS011;63465;50.862;6.220;2023-09-18T13:44:59;2.80;;;1.80;;
74904;SDS011;63465;50.862;6.220;2023-09-18T13:47:34;1.47;;;1.37;;
74904;SDS011;63465;50.862;6.220;2023-09-18T13:50:01;1.40;;;1.33;;
74904;SDS011;63465;50.862;6.220;2023-09-18T13:52:31;2.37;;;1.63;;
74904;SDS011;63465;50.862;6.220;2023-09-18T13:54:58;1.63;;;1.53;;
74904;SDS011;63465;50.862;6.220;2023-09-18T13:57:24;2.57;;;1.90;;
74904;SDS011;63465;50.862;6.220;2023-09-18T13:59:50;1.50;;;1.40;;
74904;SDS011;63465;50.862;6.220;2023-09-18T14:02:16;1.60;;;1.50;;
74904;SDS011;63465;50.862;6.220;2023-09-18T14:04:42;2.40;;;1.80;;
74904;SDS011;63465;50.862;6.220;2023-09-18T14:07:09;2.63;;;1.77;;
74904;SDS011;63465;50.862;6.220;2023-09-18T14:09:35;3.63;;;1.60;;
74904;SDS011;63465;50.862;6.220;2023-09-18T14:12:01;1.53;;;1.33;;
74904;SDS011;63465;50.862;6.220;2023-09-18T14:14:33;3.40;;;1.70;;
74904;SDS011;63465;50.862;6.220;2023-09-18T14:17:00;3.50;;;1.80;;
74904;SDS011;63465;50.862;6.220;2023-09-18T14:19:25;1.53;;;1.43;;
74904;SDS011;63465;50.862;6.220;2023-09-18T14:21:50;2.40;;;1.93;;
74904;SDS011;63465;50.862;6.220;2023-09-18T14:24:17;1.93;;;1.67;;
74904;SDS011;63465;50.862;6.220;2023-09-18T14:26:46;2.17;;;1.97;;
74904;SDS011;63465;50.862;6.220;2023-09-18T14:29:12;5.13;;;1.70;;
74904;SDS011;63465;50.862;6.220;2023-09-18T14:31:38;1.93;;;1.73;;
74904;SDS011;63465;50.862;6.220;2023-09-18T14:34:03;2.03;;;1.50;;
74904;SDS011;63465;50.862;6.220;2023-09-18T14:36:30;4.77;;;1.80;;
74904;SDS011;63465;50.862;6.220;2023-09-18T14:38:57;3.53;;;1.47;;
74904;SDS011;63465;50.862;6.220;2023-09-18T14:41:23;3.40;;;1.47;;
74904;SDS011;63465;50.862;6.220;2023-09-18T14:43:49;4.83;;;1.90;;
74904;SDS011;63465;50.862;6.220;2023-09-18T14:46:15;2.93;;;1.80;;
74904;SDS011;63465;50.862;6.220;2023-09-18T14:48:40;2.23;;;2.13;;
74904;SDS011;63465;50.862;6.220;2023-09-18T14:51:06;3.03;;;1.77;;
74904;SDS011;63465;50.862;6.220;2023-09-18T14:53:32;3.80;;;1.63;;
74904;SDS011;63465;50.862;6.220;2023-09-18T14:55:57;2.50;;;1.93;;
74904;SDS011;63465;50.862;6.220;2023-09-18T14:58:23;1.97;;;1.83;;